Time;durP1;ratioP1;P1;durP2;ratioP2;P2;SDS_P1;SDS_P2;PMS_P1;PMS_P2;Temp;Humidity;BMP_temperature;BMP_pressure;BME280_temperature;BME280_humidity;BME280_pressure;Samples;Min_cycle;Max_cycle;Signal;HPM_P1;HPM_P2
2020/12/21 00:00:07;;;;;;;;;;;3.60;88.80;;;;;;4968363;28;20035;-77
2020/12/21 00:02:33;;;;;;;;;;;3.60;88.80;;;;;;4953212;28;19961;-76
2020/12/21 00:04:58;;;;;;;38.67;22.33;;;3.60;88.90;;;;;;4967205;28;19972;-76
2020/12/21 00:07:24;;;;;;;;;;;3.60;88.50;;;;;;4968114;28;20043;-76
2020/12/21 00:09:49;;;;;;;34.00;17.92;;;3.60;88.20;;;;;;4955928;28;19911;-77
2020/12/21 00:12:15;;;;;;;;;;;3.60;88.40;;;;;;4952923;28;20372;-76
2020/12/21 00:14:40;;;;;;;30.98;18.05;;;3.60;88.40;;;;;;4952536;29;19918;-77
2020/12/21 00:17:06;;;;;;;;;;;3.60;88.40;;;;;;4952885;28;20046;-76
2020/12/21 00:19:31;;;;;;;29.00;16.83;;;3.60;88.60;;;;;;4952801;29;20338;-76
2020/12/21 00:21:57;;;;;;;;;;;3.60;88.30;;;;;;4967815;28;20035;-77
2020/12/21 00:24:23;;;;;;;30.50;18.20;;;3.60;88.20;;;;;;4966520;28;19911;-78
2020/12/21 00:26:49;;;;;;;;;;;3.60;88.00;;;;;;4952753;29;20039;-76
2020/12/21 00:29:15;;;;;;;30.60;17.07;;;3.60;88.10;;;;;;4952944;28;19906;-77
2020/12/21 00:31:42;;;;;;;28.88;17.83;;;3.60;88.10;;;;;;4967401;28;20282;-77
2020/12/21 00:34:08;;;;;;;29.77;17.25;;;3.60;88.20;;;;;;4954773;29;20032;-76
2020/12/21 00:36:37;;;;;;;;;;;3.60;88.20;;;;;;4952953;29;20041;-76
2020/12/21 00:39:04;;;;;;;32.05;17.38;;;3.60;88.20;;;;;;4952291;28;20031;-77
2020/12/21 00:41:29;;;;;;;34.65;17.98;;;3.60;88.30;;;;;;4952570;28;20035;-77
2020/12/21 00:43:55;;;;;;;;;;;3.60;88.30;;;;;;4953356;29;20043;-76
2020/12/21 00:46:25;;;;;;;32.25;17.83;;;3.60;88.20;;;;;;4952668;28;19949;-76
2020/12/21 00:48:52;;;;;;;31.35;17.30;;;3.60;88.20;;;;;;4952095;28;20027;-76
2020/12/21 00:51:19;;;;;;;34.20;18.88;;;3.60;88.30;;;;;;4953019;28;20064;-75
2020/12/21 00:53:45;;;;;;;31.02;16.90;;;3.60;88.20;;;;;;4954288;28;20069;-76
2020/12/21 00:56:11;;;;;;;32.15;17.50;;;3.60;88.30;;;;;;4970406;28;20054;-76
2020/12/21 00:58:37;;;;;;;;;;;3.60;88.50;;;;;;4959445;29;20031;-77
2020/12/21 01:01:10;;;;;;;30.80;18.42;;;3.60;88.70;;;;;;4970998;28;19933;-76
2020/12/21 01:03:36;;;;;;;28.38;17.30;;;3.50;88.70;;;;;;4970749;28;20134;-77
2020/12/21 01:06:02;;;;;;;;;;;3.60;88.70;;;;;;4956758;29;20806;-77
2020/12/21 01:08:28;;;;;;;31.75;18.33;;;3.60;88.50;;;;;;4971332;28;19910;-76
2020/12/21 01:10:53;;;;;;;;;;;3.60;88.70;;;;;;4957236;29;20027;-76
2020/12/21 01:13:19;;;;;;;32.88;17.75;;;3.60;88.40;;;;;;4955087;29;19965;-77
2020/12/21 01:15:44;;;;;;;;;;;3.50;89.00;;;;;;4956981;29;20027;-76
2020/12/21 01:18:10;;;;;;;34.47;18.58;;;3.60;88.30;;;;;;4956456;29;20298;-78
2020/12/21 01:20:36;;;;;;;;;;;3.50;88.10;;;;;;4971783;28;20456;-76
2020/12/21 01:23:03;;;;;;;32.30;16.67;;;3.60;88.10;;;;;;4960724;28;19922;-76
2020/12/21 01:25:29;;;;;;;29.10;16.90;;;3.60;88.00;;;;;;4961852;29;20488;-76
2020/12/21 01:27:54;;;;;;;;;;;3.60;88.00;;;;;;4971807;28;20042;-77
2020/12/21 01:30:20;;;;;;;38.88;17.10;;;3.60;87.90;;;;;;4963062;29;19913;-77
2020/12/21 01:32:45;;;;;;;;;;;3.60;87.90;;;;;;4963045;29;20035;-77
2020/12/21 01:35:11;;;;;;;32.97;17.88;;;3.60;87.90;;;;;;4970221;28;19914;-77
2020/12/21 01:37:36;;;;;;;;;;;3.60;88.00;;;;;;4956080;29;20031;-76
2020/12/21 01:40:04;;;;;;;31.50;18.13;;;3.60;87.80;;;;;;4969983;28;19913;-78
2020/12/21 01:42:30;;;;;;;30.08;17.50;;;3.60;87.70;;;;;;4969394;28;20035;-76
2020/12/21 01:44:55;;;;;;;;;;;3.60;87.80;;;;;;4953998;29;20039;-77
2020/12/21 01:47:22;;;;;;;28.92;16.55;;;3.60;87.60;;;;;;4957626;29;20009;-77
2020/12/21 01:49:49;;;;;;;30.80;17.88;;;3.60;87.70;;;;;;4969855;28;20035;-77
2020/12/21 01:52:17;;;;;;;35.40;18.85;;;3.60;87.80;;;;;;4955014;29;20101;-77
2020/12/21 01:54:45;;;;;;;35.72;19.83;;;3.60;88.10;;;;;;4954376;29;20086;-77
2020/12/21 01:57:10;;;;;;;34.08;19.90;;;3.60;88.00;;;;;;4954493;29;20405;-76
2020/12/21 01:59:36;;;;;;;;;;;3.60;88.20;;;;;;4969533;28;20070;-77
2020/12/21 02:02:02;;;;;;;34.65;19.45;;;3.60;88.30;;;;;;4969283;28;19961;-76
2020/12/21 02:04:28;;;;;;;30.50;17.42;;;3.60;88.20;;;;;;4968519;28;20121;-77
2020/12/21 02:06:56;;;;;;;;;;;3.60;88.30;;;;;;4954704;29;20496;-76
2020/12/21 02:09:22;;;;;;;32.78;17.75;;;3.60;88.50;;;;;;4953190;29;20298;-77
2020/12/21 02:11:47;;;;;;;;;;;3.60;88.50;;;;;;4972077;28;20241;-79
2020/12/21 02:14:13;;;;;;;32.78;19.52;;;3.60;88.40;;;;;;4955409;29;19910;-76
2020/12/21 02:16:38;;;;;;;;;;;3.50;88.50;;;;;;4953696;29;20023;-77
2020/12/21 02:19:04;;;;;;;34.80;16.73;;;3.60;88.70;;;;;;4954349;29;19910;-77
2020/12/21 02:21:30;;;;;;;;;;;3.60;88.80;;;;;;4954665;29;20511;-77
2020/12/21 02:23:56;;;;;;;40.47;20.05;;;3.50;88.80;;;;;;4968871;28;20442;-76
2020/12/21 02:26:22;;;;;;;33.22;19.58;;;3.50;88.70;;;;;;4954272;29;20679;-76
2020/12/21 02:28:51;;;;;;;;;;;3.50;88.50;;;;;;4954149;29;20229;-77
2020/12/21 02:31:17;;;;;;;33.15;19.15;;;3.50;88.30;;;;;;4954008;28;19910;-77
2020/12/21 02:33:43;;;;;;;;;;;3.50;88.50;;;;;;4970046;28;20031;-76
2020/12/21 02:36:08;;;;;;;35.83;18.50;;;3.50;88.70;;;;;;4956682;29;20004;-78
2020/12/21 02:38:34;;;;;;;;;;;3.50;88.80;;;;;;4956388;29;20038;-76
2020/12/21 02:40:59;;;;;;;39.20;20.92;;;3.50;88.80;;;;;;4969485;28;19906;-76
2020/12/21 02:43:25;;;;;;;;;;;3.50;88.80;;;;;;4955352;29;20567;-76
2020/12/21 02:45:50;;;;;;;38.05;20.63;;;3.50;88.90;;;;;;4954779;29;20335;-75
2020/12/21 02:48:16;;;;;;;;;;;3.50;89.00;;;;;;4969084;28;20034;-76
2020/12/21 02:50:42;;;;;;;39.50;21.00;;;3.50;89.00;;;;;;4953692;28;19911;-76
2020/12/21 02:53:08;;;;;;;37.72;19.55;;;3.50;88.80;;;;;;4953894;29;20638;-76
2020/12/21 02:55:34;;;;;;;;;;;3.50;88.90;;;;;;4954175;29;20524;-76
2020/12/21 02:57:59;;;;;;;35.42;19.67;;;3.50;89.50;;;;;;4953006;29;19922;-76
2020/12/21 03:00:25;;;;;;;;;;;3.50;88.70;;;;;;4954664;29;20027;-77
2020/12/21 03:02:50;;;;;;;37.13;19.88;;;3.50;88.70;;;;;;4969916;28;19944;-76
2020/12/21 03:05:16;;;;;;;;;;;3.50;88.70;;;;;;4953890;29;20070;-76
2020/12/21 03:07:41;;;;;;;38.88;20.98;;;3.50;88.70;;;;;;4968091;28;20255;-77
2020/12/21 03:10:07;;;;;;;;;;;3.50;88.80;;;;;;4968187;28;20140;-76
2020/12/21 03:12:32;;;;;;;36.92;19.35;;;3.50;88.60;;;;;;4952868;29;19980;-76
2020/12/21 03:14:58;;;;;;;;;;;3.50;88.60;;;;;;4968365;28;20035;-76
2020/12/21 03:17:24;;;;;;;38.55;22.13;;;3.50;88.60;;;;;;4967724;28;19916;-76
2020/12/21 03:19:49;;;;;;;;;;;3.50;88.60;;;;;;4952444;29;20472;-76
2020/12/21 03:22:15;;;;;;;45.08;20.60;;;3.50;88.80;;;;;;4953342;29;20364;-76
2020/12/21 03:24:40;;;;;;;;;;;3.50;88.80;;;;;;4953741;29;20097;-78
2020/12/21 03:27:06;;;;;;;37.50;20.27;;;3.50;88.60;;;;;;4956862;29;19914;-76
2020/12/21 03:29:31;;;;;;;;;;;3.50;88.90;;;;;;4954474;29;20043;-77
2020/12/21 03:31:57;;;;;;;41.75;21.35;;;3.50;88.70;;;;;;4953501;28;19910;-77
2020/12/21 03:34:23;;;;;;;;;;;3.50;88.80;;;;;;4953853;29;20035;-77
2020/12/21 03:36:48;;;;;;;40.10;20.15;;;3.50;88.80;;;;;;4953024;29;19961;-76
2020/12/21 03:39:14;;;;;;;;;;;3.50;88.90;;;;;;4952713;29;20024;-76
2020/12/21 03:41:40;;;;;;;40.83;20.27;;;3.50;88.90;;;;;;4952633;28;19918;-75
2020/12/21 03:44:05;;;;;;;;;;;3.50;88.90;;;;;;4953776;28;20480;-76
2020/12/21 03:46:31;;;;;;;44.50;23.05;;;3.50;88.80;;;;;;4967713;28;20009;-77
2020/12/21 03:48:57;;;;;;;35.83;19.77;;;3.50;88.90;;;;;;4953282;29;20038;-77
2020/12/21 03:51:23;;;;;;;;;;;3.50;88.90;;;;;;4972098;28;20035;-77
2020/12/21 03:53:48;;;;;;;43.40;22.33;;;3.50;88.80;;;;;;4953218;28;19921;-77
2020/12/21 03:56:14;;;;;;;;;;;3.50;88.60;;;;;;4968103;28;20082;-77
2020/12/21 03:58:39;;;;;;;36.97;18.90;;;3.50;88.90;;;;;;4953663;29;19911;-77
2020/12/21 04:01:05;;;;;;;;;;;3.50;88.80;;;;;;4952518;29;20023;-77
2020/12/21 04:03:30;;;;;;;42.70;22.23;;;3.50;88.90;;;;;;4953416;28;19920;-77
2020/12/21 04:05:56;;;;;;;;;;;3.50;88.80;;;;;;4953386;29;20035;-76
2020/12/21 04:08:23;;;;;;;38.55;20.00;;;3.50;88.80;;;;;;4967631;28;19910;-76
2020/12/21 04:10:48;;;;;;;46.80;22.60;;;3.50;88.90;;;;;;4953266;29;20035;-76
2020/12/21 04:13:14;;;;;;;;;;;3.50;88.90;;;;;;4953377;29;20035;-77
2020/12/21 04:15:40;;;;;;;37.20;20.55;;;3.50;89.00;;;;;;4971020;28;19916;-76
2020/12/21 04:18:06;;;;;;;;;;;3.50;89.00;;;;;;4953640;29;20031;-76
2020/12/21 04:20:32;;;;;;;39.40;20.15;;;3.50;89.70;;;;;;4953296;29;19910;-77
2020/12/21 04:22:58;;;;;;;36.80;19.45;;;3.50;89.10;;;;;;4968352;28;20043;-76
2020/12/21 04:25:24;;;;;;;44.38;22.73;;;3.50;89.10;;;;;;4968751;28;20405;-78
2020/12/21 04:27:49;;;;;;;;;;;3.50;89.10;;;;;;4959781;28;20035;-77
2020/12/21 04:30:15;;;;;;;37.95;19.25;;;3.50;89.20;;;;;;4974376;28;19917;-77
2020/12/21 04:32:40;;;;;;;;;;;3.50;89.30;;;;;;4975290;28;20031;-77
2020/12/21 04:35:06;;;;;;;41.95;21.77;;;3.50;89.20;;;;;;4977863;28;19911;-76
2020/12/21 04:37:32;;;;;;;;;;;3.50;89.40;;;;;;4975272;28;20456;-77
2020/12/21 04:39:58;;;;;;;37.38;20.73;;;3.50;89.30;;;;;;4974197;28;19917;-77
2020/12/21 04:42:24;;;;;;;41.10;22.33;;;3.50;89.50;;;;;;4971324;28;20086;-77
2020/12/21 04:44:53;;;;;;;;;;;3.50;89.50;;;;;;4971584;28;20039;-77
2020/12/21 04:47:19;;;;;;;41.10;21.77;;;3.50;89.40;;;;;;4971725;28;19919;-77
2020/12/21 04:49:46;;;;;;;39.83;20.83;;;3.50;89.70;;;;;;4956298;29;20497;-77
2020/12/21 04:52:13;;;;;;;42.92;21.60;;;3.50;89.60;;;;;;4956749;29;20019;-76
2020/12/21 04:54:40;;;;;;;41.88;22.27;;;3.50;89.60;;;;;;4971326;28;20066;-77
2020/12/21 04:57:05;;;;;;;39.53;21.05;;;3.50;89.70;;;;;;4956657;29;20047;-77
2020/12/21 04:59:31;;;;;;;;;;;3.50;89.80;;;;;;4971465;28;20503;-77
2020/12/21 05:01:56;;;;;;;42.78;22.83;;;3.50;89.80;;;;;;4970696;28;20375;-77
2020/12/21 05:04:23;;;;;;;;;;;3.50;90.00;;;;;;4971709;28;20544;-78
2020/12/21 05:06:52;;;;;;;39.90;20.80;;;3.40;89.80;;;;;;4958050;29;19914;-77
2020/12/21 05:09:21;;;;;;;38.25;19.23;;;3.40;89.70;;;;;;4955407;29;20039;-77
2020/12/21 05:11:54;;;;;;;41.88;21.70;;;3.40;89.80;;;;;;4970012;28;20031;-77
2020/12/21 05:14:30;;;;;;;45.28;24.10;;;3.40;89.70;;;;;;4955845;29;20027;-77
2020/12/21 05:16:56;;;;;;;41.63;23.02;;;3.50;89.80;;;;;;4970615;28;20027;-76
2020/12/21 05:19:22;;;;;;;;;;;3.40;89.50;;;;;;4970646;28;20039;-76
2020/12/21 05:21:54;;;;;;;41.58;22.33;;;3.40;90.00;;;;;;4971088;28;19906;-77
2020/12/21 05:24:21;;;;;;;34.20;19.35;;;3.40;89.70;;;;;;4956438;29;20039;-78
2020/12/21 05:26:47;;;;;;;39.58;21.80;;;3.40;89.70;;;;;;4970649;28;20078;-75
2020/12/21 05:29:23;;;;;;;;;;;3.40;89.80;;;;;;4972549;28;20091;-77
2020/12/21 05:31:49;;;;;;;46.22;22.05;;;3.40;89.80;;;;;;4955489;28;19917;-76
2020/12/21 05:34:23;;;;;;;;;;;3.50;89.70;;;;;;4954785;29;20026;-76
2020/12/21 05:36:48;;;;;;;44.50;22.55;;;3.50;89.90;;;;;;4954608;28;20009;-75
2020/12/21 05:39:14;;;;;;;;;;;3.50;89.90;;;;;;4954218;28;20106;-76
2020/12/21 05:41:40;;;;;;;42.47;21.17;;;3.50;89.90;;;;;;4955005;28;19934;-77
2020/12/21 05:44:06;;;;;;;;;;;3.50;90.00;;;;;;4969753;28;20125;-76
2020/12/21 05:46:32;;;;;;;41.58;21.80;;;3.40;90.00;;;;;;4955104;28;20441;-76
2020/12/21 05:48:58;;;;;;;;;;;3.40;90.00;;;;;;4969785;28;20106;-76
2020/12/21 05:51:32;;;;;;;44.10;22.15;;;3.40;90.00;;;;;;4954972;28;19938;-76
2020/12/21 05:54:00;;;;;;;39.03;21.27;;;3.40;90.00;;;;;;4972487;28;20037;-78
2020/12/21 05:56:27;;;;;;;37.83;20.92;;;3.50;90.10;;;;;;4970306;28;20456;-77
2020/12/21 05:58:54;;;;;;;43.10;23.58;;;3.50;90.20;;;;;;4969510;28;20028;-76
2020/12/21 06:01:20;;;;;;;45.95;24.40;;;3.50;90.20;;;;;;4954919;29;20028;-77
2020/12/21 06:03:48;;;;;;;;;;;3.50;90.30;;;;;;4955354;29;20408;-77
2020/12/21 06:06:21;;;;;;;43.25;22.27;;;3.50;90.10;;;;;;4954326;29;19910;-77
2020/12/21 06:08:52;;;;;;;48.20;23.90;;;3.50;90.20;;;;;;4954183;29;20035;-76
2020/12/21 06:11:22;;;;;;;47.03;22.27;;;3.50;90.10;;;;;;4968853;28;20762;-76
2020/12/21 06:13:57;;;;;;;47.00;23.67;;;3.50;90.10;;;;;;4952974;29;20086;-76
2020/12/21 06:16:28;;;;;;;45.28;25.80;;;3.50;90.00;;;;;;4955488;29;20110;-76
2020/12/21 06:19:09;;;;;;;55.25;27.33;;;3.50;90.30;;;;;;4963644;28;20078;-78
2020/12/21 06:21:51;;;;;;;50.38;26.63;;;3.50;90.10;;;;;;4933899;29;20493;-77
2020/12/21 06:24:17;;;;;;;42.67;23.10;;;3.60;90.10;;;;;;4935260;29;20036;-76
2020/12/21 06:26:43;;;;;;;41.67;21.75;;;3.60;90.10;;;;;;4934752;29;20023;-76
2020/12/21 06:29:13;;;;;;;;;;;3.60;90.10;;;;;;4935697;29;20054;-75
2020/12/21 06:31:49;;;;;;;48.83;25.15;;;3.50;90.10;;;;;;4935237;29;20467;-76
2020/12/21 06:34:19;;;;;;;49.15;24.70;;;3.50;90.20;;;;;;4934849;29;20103;-76
2020/12/21 06:36:46;;;;;;;41.20;23.60;;;3.50;90.40;;;;;;4949455;29;20063;-76
2020/12/21 06:39:23;;;;;;;49.22;25.67;;;3.50;90.40;;;;;;4949834;29;20039;-75
2020/12/21 06:41:48;;;;;;;;;;;3.60;90.40;;;;;;4935752;29;20043;-76
2020/12/21 06:44:14;;;;;;;45.08;24.30;;;3.50;90.60;;;;;;4935745;29;19919;-76
2020/12/21 06:46:39;;;;;;;;;;;3.50;90.50;;;;;;4933617;29;20028;-76
2020/12/21 06:49:06;;;;;;;45.95;23.27;;;3.60;90.40;;;;;;4933486;29;19906;-75
2020/12/21 06:51:32;;;;;;;46.17;23.88;;;3.50;90.40;;;;;;4933122;29;20159;-76
2020/12/21 06:54:03;;;;;;;40.75;23.17;;;3.60;90.70;;;;;;4933688;29;20481;-76
2020/12/21 06:56:29;;;;;;;46.55;24.85;;;3.60;90.70;;;;;;4934292;29;20051;-77
2020/12/21 06:58:58;;;;;;;;;;;3.60;90.70;;;;;;4935252;29;20394;-77
2020/12/21 07:01:28;;;;;;;58.08;26.52;;;3.60;90.50;;;;;;4935082;29;19913;-77
2020/12/21 07:03:54;;;;;;;85.82;34.00;;;3.60;90.50;;;;;;4951153;29;20557;-77
2020/12/21 07:06:20;;;;;;;72.47;33.45;;;3.60;90.50;;;;;;4948570;29;20032;-77
2020/12/21 07:08:47;;;;;;;83.18;37.10;;;3.60;90.60;;;;;;4949654;29;20389;-77
2020/12/21 07:11:17;;;;;;;176.60;86.82;;;3.60;90.70;;;;;;4947876;29;20497;-77
2020/12/21 07:13:44;;;;;;;162.75;73.38;;;3.70;90.80;;;;;;4947685;29;20036;-77
2020/12/21 07:16:11;;;;;;;71.65;35.13;;;3.70;90.90;;;;;;4934246;29;20060;-76
2020/12/21 07:18:36;;;;;;;47.78;26.00;;;3.70;90.90;;;;;;4959404;28;20121;-76
2020/12/21 07:21:06;;;;;;;;;;;3.70;90.80;;;;;;4968395;28;20247;-78
2020/12/21 07:23:31;;;;;;;59.45;33.25;;;3.70;90.80;;;;;;4969815;28;19918;-78
2020/12/21 07:25:57;;;;;;;;;;;3.70;90.70;;;;;;4954474;29;20027;-76
2020/12/21 07:28:26;;;;;;;58.17;31.23;;;3.70;90.60;;;;;;4969125;28;20484;-77
2020/12/21 07:30:52;;;;;;;76.55;41.17;;;3.70;90.60;;;;;;4971149;28;20086;-76
2020/12/21 07:33:17;;;;;;;;;;;3.70;90.90;;;;;;4954647;29;20059;-79
2020/12/21 07:35:44;;;;;;;41.17;19.10;;;3.70;90.60;;;;;;4960466;28;19918;-77
2020/12/21 07:38:13;;;;;;;48.30;24.70;;;3.70;90.50;;;;;;4947329;29;20101;-78
2020/12/21 07:40:42;;;;;;;44.78;24.40;;;3.70;90.40;;;;;;4949465;28;20032;-77
2020/12/21 07:43:16;;;;;;;34.17;18.95;;;3.70;90.30;;;;;;4945462;29;20077;-77
2020/12/21 07:45:44;;;;;;;84.43;42.13;;;3.70;90.30;;;;;;4939353;28;20031;-77
2020/12/21 07:48:10;;;;;;;71.70;39.75;;;3.70;90.40;;;;;;4933254;29;20036;-77
2020/12/21 07:50:36;;;;;;;;;;;3.70;90.40;;;;;;4932831;29;20083;-77
2020/12/21 07:53:02;;;;;;;46.58;26.00;;;3.70;90.30;;;;;;4948663;29;19921;-76
2020/12/21 07:55:28;;;;;;;33.88;16.85;;;3.80;90.30;;;;;;4933598;29;20055;-76
2020/12/21 07:57:53;;;;;;;;;;;3.80;90.20;;;;;;4937068;29;20493;-77
2020/12/21 08:00:19;;;;;;;26.95;14.77;;;3.90;90.00;;;;;;4948030;29;20377;-78
2020/12/21 08:02:49;;;;;;;;;;;3.90;89.80;;;;;;4934950;29;20523;-76
2020/12/21 08:05:20;;;;;;;37.15;18.80;;;3.90;89.70;;;;;;4936755;29;20388;-76
2020/12/21 08:07:46;;;;;;;38.42;21.35;;;3.90;90.00;;;;;;4965836;28;20035;-78
2020/12/21 08:10:12;;;;;;;;;;;3.90;90.20;;;;;;4957867;28;20038;-76
2020/12/21 08:12:38;;;;;;;39.53;21.33;;;3.90;90.30;;;;;;4956318;28;19917;-76
2020/12/21 08:15:05;;;;;;;;;;;4.00;90.30;;;;;;4956177;29;20061;-77
2020/12/21 08:17:31;;;;;;;45.13;22.58;;;4.00;90.50;;;;;;4956108;28;19954;-77
2020/12/21 08:19:59;;;;;;;46.50;23.95;;;4.00;90.50;;;;;;4956651;28;20070;-76
2020/12/21 08:22:27;;;;;;;104.65;46.75;;;4.00;90.30;;;;;;4958521;28;20050;-76
2020/12/21 08:25:11;;;;;;;147.77;64.88;;;4.10;90.20;;;;;;4955790;28;20461;-76
2020/12/21 08:27:41;;;;;;;67.82;28.40;;;4.10;90.20;;;;;;4955991;28;20047;-76
2020/12/21 08:30:21;;;;;;;42.17;21.17;;;4.10;90.20;;;;;;4970632;28;20045;-78
2020/12/21 08:32:48;;;;;;;42.85;22.42;;;4.10;90.10;;;;;;4956200;28;20567;-76
2020/12/21 08:35:22;;;;;;;53.83;26.20;;;4.10;89.00;;;;;;4956063;28;20024;-78
2020/12/21 08:37:48;;;;;;;44.67;21.90;;;4.10;88.90;;;;;;4970397;28;20392;-77
2020/12/21 08:40:14;;;;;;;;;;;4.10;88.30;;;;;;4957029;28;20039;-77
2020/12/21 08:42:40;;;;;;;50.57;21.97;;;4.10;88.30;;;;;;4971027;28;19941;-77
2020/12/21 08:45:08;;;;;;;76.05;32.42;;;4.10;88.40;;;;;;4958192;28;20039;-77
2020/12/21 08:47:34;;;;;;;93.43;37.65;;;4.20;88.50;;;;;;4972196;28;20059;-76
2020/12/21 08:50:02;;;;;;;;;;;4.20;88.50;;;;;;4956264;28;20035;-77
2020/12/21 08:52:28;;;;;;;88.68;34.25;;;4.20;88.70;;;;;;4954713;28;19910;-77
2020/12/21 08:54:54;;;;;;;84.28;31.75;;;4.20;88.30;;;;;;4953258;28;20059;-76
2020/12/21 08:57:19;;;;;;;;;;;4.20;88.40;;;;;;4952608;29;20051;-76
2020/12/21 08:59:45;;;;;;;126.25;50.13;;;4.30;88.30;;;;;;4952657;29;19918;-77
2020/12/21 09:02:10;;;;;;;;;;;4.30;89.00;;;;;;4954350;28;20801;-77
2020/12/21 09:04:36;;;;;;;72.03;31.77;;;4.30;88.70;;;;;;4970753;28;19926;-77
2020/12/21 09:07:01;;;;;;;;;;;4.30;88.40;;;;;;4956315;29;20031;-76
2020/12/21 09:09:27;;;;;;;34.95;18.02;;;4.30;88.10;;;;;;4949030;29;19956;-78
2020/12/21 09:11:53;;;;;;;;;;;4.40;88.10;;;;;;4963778;28;20027;-76
2020/12/21 09:14:19;;;;;;;26.35;13.23;;;4.40;88.00;;;;;;4945047;29;19918;-76
2020/12/21 09:16:44;;;;;;;;;;;4.40;87.70;;;;;;4948521;29;20058;-76
2020/12/21 09:19:10;;;;;;;28.25;14.82;;;4.50;88.00;;;;;;4947125;29;19923;-76
2020/12/21 09:21:35;;;;;;;;;;;4.50;87.30;;;;;;4946595;29;20024;-75
2020/12/21 09:24:01;;;;;;;23.70;14.20;;;4.50;87.10;;;;;;4943538;29;20718;-76
2020/12/21 09:26:27;;;;;;;;;;;4.60;87.00;;;;;;4946480;29;20040;-76
2020/12/21 09:28:54;;;;;;;26.67;13.25;;;4.60;87.30;;;;;;4966472;28;19915;-76
2020/12/21 09:31:21;;;;;;;28.40;14.30;;;4.60;86.80;;;;;;4951254;29;20035;-77
2020/12/21 09:33:50;;;;;;;26.23;14.35;;;4.60;86.40;;;;;;4957762;28;20042;-80
2020/12/21 09:36:19;;;;;;;26.65;14.55;;;4.70;86.20;;;;;;4947083;29;20038;-78
2020/12/21 09:38:45;;;;;;;27.15;14.68;;;4.70;86.30;;;;;;4968240;28;20031;-77
2020/12/21 09:41:16;;;;;;;27.80;15.80;;;4.70;86.50;;;;;;4941341;29;20035;-78
2020/12/21 09:43:44;;;;;;;24.58;14.30;;;4.70;85.70;;;;;;4936653;29;20126;-77
2020/12/21 09:46:10;;;;;;;26.55;14.93;;;4.70;85.50;;;;;;4951005;28;20074;-76
2020/12/21 09:48:36;;;;;;;51.63;26.15;;;4.70;85.10;;;;;;4948391;28;20024;-78
2020/12/21 09:51:01;;;;;;;;;;;4.70;85.20;;;;;;4943605;29;20034;-78
2020/12/21 09:53:27;;;;;;;27.30;14.90;;;4.80;84.60;;;;;;4948239;29;19911;-76
2020/12/21 09:55:52;;;;;;;;;;;4.70;84.60;;;;;;4937488;29;20437;-77
2020/12/21 09:58:18;;;;;;;25.65;14.63;;;4.70;85.00;;;;;;4937919;29;19914;-78
2020/12/21 10:00:43;;;;;;;;;;;4.70;85.20;;;;;;4938676;29;20078;-77
2020/12/21 10:03:09;;;;;;;33.72;17.38;;;4.70;85.10;;;;;;4958670;28;19941;-77
2020/12/21 10:05:34;;;;;;;;;;;4.70;85.70;;;;;;4956172;28;20110;-76
2020/12/21 10:08:00;;;;;;;31.58;17.45;;;4.70;85.80;;;;;;4971114;28;19917;-77
2020/12/21 10:10:26;;;;;;;;;;;4.70;85.70;;;;;;4956262;29;20039;-77
2020/12/21 10:12:51;;;;;;;32.05;16.45;;;4.70;86.30;;;;;;4955950;28;19910;-77
2020/12/21 10:15:17;;;;;;;;;;;4.80;86.40;;;;;;4956914;29;20035;-77
2020/12/21 10:17:43;;;;;;;29.13;15.95;;;4.80;86.50;;;;;;4954960;28;19911;-77
2020/12/21 10:20:08;;;;;;;;;;;4.70;86.10;;;;;;4952984;29;20115;-77
2020/12/21 10:22:34;;;;;;;33.17;18.73;;;4.80;86.80;;;;;;4945807;29;20013;-76
2020/12/21 10:24:59;;;;;;;;;;;4.70;86.50;;;;;;4956751;28;20101;-77
2020/12/21 10:27:25;;;;;;;34.63;18.17;;;4.70;86.10;;;;;;4955854;29;19906;-77
2020/12/21 10:29:51;;;;;;;;;;;4.70;85.90;;;;;;4957044;28;20039;-77
2020/12/21 10:32:17;;;;;;;37.50;20.52;;;4.70;85.90;;;;;;4956625;29;19910;-78
2020/12/21 10:34:42;;;;;;;;;;;4.80;85.90;;;;;;4952735;28;20062;-78
2020/12/21 10:37:08;;;;;;;39.15;19.33;;;4.80;86.10;;;;;;4971317;28;20687;-76
2020/12/21 10:39:34;;;;;;;;;;;4.70;85.40;;;;;;4971999;28;20038;-76
2020/12/21 10:42:03;;;;;;;56.08;27.48;;;4.70;85.90;;;;;;4959116;28;19910;-78
2020/12/21 10:44:29;;;;;;;44.25;25.38;;;4.70;85.40;;;;;;4971463;28;20066;-77
2020/12/21 10:46:57;;;;;;;;;;;4.70;85.30;;;;;;4954624;29;20484;-77
2020/12/21 10:49:22;;;;;;;66.57;39.47;;;4.70;85.60;;;;;;4956395;28;19906;-77
2020/12/21 10:51:48;;;;;;;;;;;4.70;86.10;;;;;;4953789;29;20551;-77
2020/12/21 10:54:13;;;;;;;71.75;39.03;;;4.70;86.10;;;;;;4954016;29;20013;-78
2020/12/21 10:56:39;;;;;;;;;;;4.70;86.20;;;;;;4953321;29;20518;-78
2020/12/21 10:59:04;;;;;;;87.95;47.85;;;4.60;86.00;;;;;;4953309;29;19934;-77
2020/12/21 11:01:30;;;;;;;;;;;4.60;86.50;;;;;;4954308;29;20027;-77
2020/12/21 11:03:55;;;;;;;78.97;46.85;;;4.60;86.50;;;;;;4967031;28;19918;-78
2020/12/21 11:06:22;;;;;;;;;;;4.60;86.80;;;;;;4967999;28;20027;-77
2020/12/21 11:08:48;;;;;;;40.13;23.60;;;4.60;86.70;;;;;;4952137;28;19906;-77
2020/12/21 11:11:15;;;;;;;42.30;23.63;;;4.50;86.90;;;;;;4952266;28;20066;-77
2020/12/21 11:13:42;;;;;;;44.65;24.60;;;4.50;87.20;;;;;;4967183;28;20028;-77
2020/12/21 11:16:09;;;;;;;40.47;21.27;;;4.50;87.70;;;;;;4952298;28;20062;-77
2020/12/21 11:18:35;;;;;;;45.72;23.48;;;4.50;86.90;;;;;;4952027;28;20111;-77
2020/12/21 11:21:00;;;;;;;;;;;4.50;87.10;;;;;;4952282;28;20133;-77
2020/12/21 11:23:26;;;;;;;50.83;27.17;;;4.40;87.50;;;;;;4951857;29;19964;-76
2020/12/21 11:25:51;;;;;;;;;;;4.50;87.30;;;;;;4952620;29;20060;-78
2020/12/21 11:28:18;;;;;;;51.95;25.67;;;4.50;87.90;;;;;;4954801;29;19997;-77
2020/12/21 11:30:44;;;;;;;51.15;26.95;;;4.50;87.50;;;;;;4967096;28;20473;-77
2020/12/21 11:33:09;;;;;;;;;;;4.50;87.30;;;;;;4920508;29;20071;-77
2020/12/21 11:35:35;;;;;;;54.60;27.50;;;4.60;87.10;;;;;;4933301;29;19915;-76
2020/12/21 11:38:00;;;;;;;;;;;4.60;87.10;;;;;;4932875;29;20095;-76
2020/12/21 11:40:26;;;;;;;61.70;30.52;;;4.60;87.00;;;;;;4946726;28;19910;-76
2020/12/21 11:42:51;;;;;;;;;;;4.60;87.00;;;;;;4967023;28;20130;-76
2020/12/21 11:45:17;;;;;;;56.22;25.33;;;4.60;87.10;;;;;;4952514;29;19906;-77
2020/12/21 11:47:43;;;;;;;;;;;4.50;87.00;;;;;;4950889;29;20551;-76
2020/12/21 11:50:08;;;;;;;45.08;25.67;;;4.60;87.50;;;;;;4951030;29;19910;-77
2020/12/21 11:52:34;;;;;;;;;;;4.60;87.30;;;;;;4952633;29;20035;-76
2020/12/21 11:54:59;;;;;;;74.22;33.33;;;4.50;87.20;;;;;;4966469;28;20229;-77
2020/12/21 11:57:26;;;;;;;;;;;4.50;87.60;;;;;;4951471;29;20047;-77
2020/12/21 11:59:52;;;;;;;58.65;32.97;;;4.50;87.60;;;;;;4951529;28;19959;-77
2020/12/21 12:02:18;;;;;;;43.28;24.00;;;4.50;87.50;;;;;;4952810;28;20031;-76
2020/12/21 12:04:44;;;;;;;;;;;4.50;87.50;;;;;;4950604;29;20046;-77
2020/12/21 12:07:09;;;;;;;51.80;26.40;;;4.50;87.30;;;;;;4950625;29;19914;-76
2020/12/21 12:09:35;;;;;;;;;;;4.50;87.60;;;;;;4950350;29;20027;-77
2020/12/21 12:12:01;;;;;;;48.67;26.90;;;4.50;87.60;;;;;;4967312;28;20054;-76
2020/12/21 12:14:26;;;;;;;;;;;4.50;88.50;;;;;;4952571;29;20590;-77
2020/12/21 12:16:55;;;;;;;53.95;26.17;;;4.50;88.00;;;;;;4966899;28;19969;-76
2020/12/21 12:19:22;;;;;;;58.90;31.35;;;4.50;87.70;;;;;;4951396;29;20496;-76
2020/12/21 12:21:51;;;;;;;52.33;27.23;;;4.40;88.20;;;;;;4951902;29;20019;-75
2020/12/21 12:24:17;;;;;;;53.70;27.50;;;4.50;87.60;;;;;;4951563;28;20049;-76
2020/12/21 12:26:43;;;;;;;;;;;4.50;87.70;;;;;;4967534;28;20078;-76
2020/12/21 12:29:09;;;;;;;60.28;30.67;;;4.60;87.80;;;;;;4952464;28;20012;-77
2020/12/21 12:31:35;;;;;;;;;;;4.50;87.70;;;;;;4952447;28;20541;-76
2020/12/21 12:34:00;;;;;;;60.28;29.17;;;4.50;87.30;;;;;;4950379;29;19977;-76
2020/12/21 12:36:27;;;;;;;;;;;4.50;87.50;;;;;;4952746;29;20031;-76
2020/12/21 12:38:54;;;;;;;95.07;51.08;;;4.50;88.00;;;;;;4952067;28;20006;-77
2020/12/21 12:41:20;;;;;;;52.40;25.83;;;4.60;87.70;;;;;;4952290;28;20039;-76
2020/12/21 12:43:46;;;;;;;44.80;23.08;;;4.50;86.10;;;;;;4951869;28;20043;-77
2020/12/21 12:46:11;;;;;;;;;;;4.50;86.10;;;;;;4951539;29;20035;-76
2020/12/21 12:48:37;;;;;;;53.42;27.90;;;4.50;86.30;;;;;;4952150;28;19929;-76
2020/12/21 12:51:04;;;;;;;57.13;28.65;;;4.50;86.60;;;;;;4955656;29;20452;-76
2020/12/21 12:53:29;;;;;;;53.00;27.80;;;4.50;86.50;;;;;;4955837;28;20102;-78
2020/12/21 12:55:55;;;;;;;;;;;4.50;86.60;;;;;;4954356;29;20027;-77
2020/12/21 12:58:21;;;;;;;48.83;25.77;;;4.50;86.40;;;;;;4969900;28;19926;-76
2020/12/21 13:00:46;;;;;;;;;;;4.50;86.10;;;;;;4955414;29;20065;-77
2020/12/21 13:03:12;;;;;;;68.90;31.90;;;4.50;86.50;;;;;;4955524;29;19973;-77
2020/12/21 13:05:37;;;;;;;;;;;4.50;86.70;;;;;;4955903;29;20062;-77
2020/12/21 13:08:03;;;;;;;59.13;29.33;;;4.50;86.80;;;;;;4954461;29;19910;-77